Time;durP1;ratioP1;P1;durP2;ratioP2;P2;SDS_P1;SDS_P2;PMS_P1;PMS_P2;Temp;Humidity;BMP_temperature;BMP_pressure;BME280_temperature;BME280_humidity;BME280_pressure;Samples;Min_cycle;Max_cycle;Signal;HPM_P1;HPM_P2
2022/08/03 00:01:20;;;;;;;7.43;5.80;;;;;;;;;;5064154;28;20938;-82
2022/08/03 00:03:46;;;;;;;7.10;5.80;;;;;;;;;;5066814;28;20492;-81
2022/08/03 00:06:14;;;;;;;6.00;5.32;;;;;;;;;;5065785;28;20416;-81
2022/08/03 00:08:41;;;;;;;6.18;5.68;;;;;;;;;;5063159;28;20438;-82
2022/08/03 00:11:08;;;;;;;6.07;5.50;;;;;;;;;;5063252;28;20501;-84
2022/08/03 00:13:34;;;;;;;6.65;5.82;;;;;;;;;;5063349;28;20926;-80
2022/08/03 00:16:00;;;;;;;6.53;5.83;;;;;;;;;;5063635;28;20423;-84
2022/08/03 00:18:27;;;;;;;5.95;5.35;;;;;;;;;;5063945;28;20440;-81
2022/08/03 00:20:53;;;;;;;5.97;5.20;;;;;;;;;;5061330;28;21040;-82
2022/08/03 00:23:21;;;;;;;5.25;4.85;;;;;;;;;;5078245;28;20429;-82
2022/08/03 00:25:48;;;;;;;7.47;5.70;;;;;;;;;;5064541;28;20779;-82
2022/08/03 00:28:15;;;;;;;5.50;5.00;;;;;;;;;;5066667;28;20451;-81
2022/08/03 00:30:41;;;;;;;6.00;5.35;;;;;;;;;;5065209;28;20955;-83
2022/08/03 00:33:09;;;;;;;5.80;5.30;;;;;;;;;;5065293;28;20425;-81
2022/08/03 00:35:35;;;;;;;6.10;5.60;;;;;;;;;;5064578;28;20928;-83
2022/08/03 00:38:02;;;;;;;5.90;5.40;;;;;;;;;;5065397;28;20435;-83
2022/08/03 00:40:30;;;;;;;6.10;5.60;;;;;;;;;;5062650;28;20452;-83
2022/08/03 00:42:57;;;;;;;6.55;5.85;;;;;;;;;;5066890;28;20793;-82
2022/08/03 00:45:25;;;;;;;5.93;5.47;;;;;;;;;;5064230;28;20428;-82
2022/08/03 00:47:51;;;;;;;6.05;5.20;;;;;;;;;;5062144;28;20435;-81
2022/08/03 00:50:18;;;;;;;5.90;5.30;;;;;;;;;;5061937;28;20429;-84
2022/08/03 00:52:44;;;;;;;5.53;5.03;;;;;;;;;;5060515;28;20503;-83
2022/08/03 00:55:11;;;;;;;7.05;6.15;;;;;;;;;;5064237;28;20502;-82
2022/08/03 00:57:39;;;;;;;5.97;5.47;;;;;;;;;;5064232;28;20429;-82
2022/08/03 01:00:07;;;;;;;6.32;5.72;;;;;;;;;;5061357;28;20421;-81
2022/08/03 01:02:33;;;;;;;6.00;5.40;;;;;;;;;;5062922;28;20432;-81
2022/08/03 01:04:59;;;;;;;8.10;5.37;;;;;;;;;;5061693;28;20408;-82
2022/08/03 01:07:31;;;;;;;5.72;5.22;;;;;;;;;;5064377;28;20423;-82
2022/08/03 01:10:00;;;;;;;6.40;5.50;;;;;;;;;;5063282;28;20411;-81
2022/08/03 01:12:32;;;;;;;6.47;5.50;;;;;;;;;;5062964;28;20435;-82
2022/08/03 01:15:02;;;;;;;6.57;5.40;;;;;;;;;;5064232;28;20408;-85
2022/08/03 01:17:32;;;;;;;6.20;5.60;;;;;;;;;;5063488;28;20446;-83
2022/08/03 01:20:00;;;;;;;7.47;6.07;;;;;;;;;;5061709;28;20426;-82
2022/08/03 01:22:51;;;;;;;6.95;5.95;;;;;;;;;;5064189;28;20434;-84
2022/08/03 01:25:24;;;;;;;6.63;6.13;;;;;;;;;;5063389;28;20422;-83
2022/08/03 01:27:54;;;;;;;6.38;5.78;;;;;;;;;;5064257;28;20865;-83
2022/08/03 01:30:23;;;;;;;6.20;5.60;;;;;;;;;;5064371;28;20425;-84
2022/08/03 01:32:54;;;;;;;5.68;5.25;;;;;;;;;;5063742;28;20440;-84
2022/08/03 01:35:22;;;;;;;6.70;6.10;;;;;;;;;;5065485;28;20416;-82
2022/08/03 01:37:51;;;;;;;6.90;6.10;;;;;;;;;;5059867;28;20898;-82
2022/08/03 01:40:19;;;;;;;6.38;5.88;;;;;;;;;;5061439;28;20943;-83
2022/08/03 01:42:46;;;;;;;6.47;5.88;;;;;;;;;;5062409;28;20454;-84
2022/08/03 01:45:13;;;;;;;6.60;6.00;;;;;;;;;;5062534;28;20427;-83
2022/08/03 01:47:42;;;;;;;6.75;6.10;;;;;;;;;;5061108;28;20427;-82
2022/08/03 01:50:10;;;;;;;6.50;5.90;;;;;;;;;;5061209;28;20444;-82
2022/08/03 01:52:37;;;;;;;6.90;6.20;;;;;;;;;;5063526;28;20467;-82
2022/08/03 01:55:09;;;;;;;7.15;6.45;;;;;;;;;;5062641;28;20419;-81
2022/08/03 01:57:36;;;;;;;6.70;6.10;;;;;;;;;;5062788;28;20431;-82
2022/08/03 02:00:04;;;;;;;6.85;5.93;;;;;;;;;;5061403;28;20425;-83
2022/08/03 02:02:32;;;;;;;6.53;6.03;;;;;;;;;;5064548;28;20435;-81
2022/08/03 02:05:00;;;;;;;7.82;7.03;;;;;;;;;;5065055;28;20408;-82
2022/08/03 02:07:27;;;;;;;7.05;6.45;;;;;;;;;;5064012;28;20425;-82
2022/08/03 02:09:54;;;;;;;6.80;6.10;;;;;;;;;;5062603;28;20936;-82
2022/08/03 02:12:22;;;;;;;6.68;5.97;;;;;;;;;;5062770;28;20436;-82
2022/08/03 02:14:48;;;;;;;6.47;5.97;;;;;;;;;;5065530;28;20440;-84
2022/08/03 02:17:15;;;;;;;6.82;6.00;;;;;;;;;;5063955;28;20421;-81
2022/08/03 02:19:42;;;;;;;6.50;5.90;;;;;;;;;;5064990;28;20486;-83
2022/08/03 02:22:11;;;;;;;7.00;6.20;;;;;;;;;;5066648;28;20433;-83
2022/08/03 02:24:38;;;;;;;6.70;6.03;;;;;;;;;;5066070;28;20436;-84
2022/08/03 02:27:06;;;;;;;7.30;6.60;;;;;;;;;;5068493;28;20432;-82
2022/08/03 02:29:36;;;;;;;7.25;6.65;;;;;;;;;;5067156;28;20432;-82
2022/08/03 02:32:03;;;;;;;6.70;6.10;;;;;;;;;;5048245;28;20444;-82
2022/08/03 02:34:31;;;;;;;8.17;7.20;;;;;;;;;;5047365;28;20438;-81
2022/08/03 02:36:59;;;;;;;7.30;6.55;;;;;;;;;;5065473;28;20421;-82
2022/08/03 02:39:28;;;;;;;6.70;6.10;;;;;;;;;;5066723;28;20432;-82
2022/08/03 02:42:01;;;;;;;7.13;6.30;;;;;;;;;;5066278;28;20420;-82
2022/08/03 02:44:28;;;;;;;6.20;5.70;;;;;;;;;;5082568;28;20429;-82
2022/08/03 02:46:55;;;;;;;8.88;6.45;;;;;;;;;;5065100;28;20429;-81
2022/08/03 02:49:22;;;;;;;6.78;6.18;;;;;;;;;;5065447;28;20429;-81
2022/08/03 02:51:49;;;;;;;6.50;5.93;;;;;;;;;;5067264;28;20425;-83
2022/08/03 02:54:17;;;;;;;7.88;6.47;;;;;;;;;;5065495;28;20444;-83
2022/08/03 02:56:46;;;;;;;6.65;6.05;;;;;;;;;;5066938;28;20431;-80
2022/08/03 02:59:13;;;;;;;6.28;5.78;;;;;;;;;;5066652;28;20423;-82
2022/08/03 03:01:40;;;;;;;7.20;6.50;;;;;;;;;;5066066;28;20796;-82
2022/08/03 03:04:08;;;;;;;6.20;5.60;;;;;;;;;;5066082;28;20427;-84
2022/08/03 03:06:35;;;;;;;7.07;6.35;;;;;;;;;;5066587;28;21154;-82
2022/08/03 03:09:02;;;;;;;6.27;5.67;;;;;;;;;;5066310;28;20434;-83
2022/08/03 03:11:28;;;;;;;7.35;6.45;;;;;;;;;;5065232;28;20415;-83
2022/08/03 03:13:56;;;;;;;6.85;6.05;;;;;;;;;;5066012;28;20776;-83
2022/08/03 03:16:23;;;;;;;7.00;6.30;;;;;;;;;;5064190;28;20523;-84
2022/08/03 03:18:51;;;;;;;7.78;6.20;;;;;;;;;;5065068;28;20424;-82
2022/08/03 03:21:18;;;;;;;7.30;6.60;;;;;;;;;;5055146;28;20417;-82
2022/08/03 03:23:45;;;;;;;6.43;5.63;;;;;;;;;;5041398;28;20812;-83
2022/08/03 03:26:13;;;;;;;6.20;5.70;;;;;;;;;;5045402;28;20500;-82
2022/08/03 03:28:39;;;;;;;7.70;6.90;;;;;;;;;;5042541;28;20428;-83
2022/08/03 03:31:07;;;;;;;7.27;6.57;;;;;;;;;;5043876;28;20427;-82
2022/08/03 03:33:34;;;;;;;7.97;7.27;;;;;;;;;;5042841;28;20437;-83
2022/08/03 03:36:01;;;;;;;7.40;6.80;;;;;;;;;;5043548;28;20433;-82
2022/08/03 03:38:27;;;;;;;8.23;7.43;;;;;;;;;;5042560;28;20441;-82
2022/08/03 03:40:54;;;;;;;7.30;6.60;;;;;;;;;;5044271;28;21013;-83
2022/08/03 03:43:22;;;;;;;8.07;7.28;;;;;;;;;;5043777;28;20439;-83
2022/08/03 03:45:50;;;;;;;8.20;7.47;;;;;;;;;;5043862;28;20431;-83
2022/08/03 03:48:18;;;;;;;9.50;7.57;;;;;;;;;;5044992;28;20425;-83
2022/08/03 03:50:45;;;;;;;8.37;7.57;;;;;;;;;;5045431;28;20429;-84
2022/08/03 03:53:12;;;;;;;9.37;7.70;;;;;;;;;;5044669;28;20437;-83
2022/08/03 03:55:39;;;;;;;8.43;6.80;;;;;;;;;;5044615;28;20429;-84
2022/08/03 03:58:05;;;;;;;8.30;7.50;;;;;;;;;;5045566;28;20424;-83
2022/08/03 04:00:32;;;;;;;9.10;7.50;;;;;;;;;;5044452;28;20438;-82
2022/08/03 04:02:58;;;;;;;7.90;7.10;;;;;;;;;;5045431;28;20435;-83
2022/08/03 04:10:58;;;;;;;7.78;7.07;;;;;;;;;;5045867;28;20425;-84
2022/08/03 04:13:27;;;;;;;8.15;6.90;;;;;;;;;;5043789;28;20447;-83
2022/08/03 04:15:55;;;;;;;8.35;7.50;;;;;;;;;;5044017;28;20456;-84
2022/08/03 04:18:22;;;;;;;10.17;8.30;;;;;;;;;;5045118;28;20435;-82
2022/08/03 04:20:50;;;;;;;8.63;7.82;;;;;;;;;;5043775;28;20415;-82
2022/08/03 04:23:18;;;;;;;8.25;7.10;;;;;;;;;;5043513;28;20433;-82
2022/08/03 04:25:46;;;;;;;7.80;7.07;;;;;;;;;;5045229;28;20432;-82
2022/08/03 04:28:13;;;;;;;7.78;7.00;;;;;;;;;;5042745;28;20429;-83
2022/08/03 04:30:46;;;;;;;8.70;7.45;;;;;;;;;;5041119;28;20425;-83
2022/08/03 04:33:13;;;;;;;8.30;7.57;;;;;;;;;;5045384;28;20443;-81
2022/08/03 04:35:40;;;;;;;8.57;7.78;;;;;;;;;;5044334;28;20433;-81
2022/08/03 04:38:08;;;;;;;9.30;8.40;;;;;;;;;;5044451;28;20433;-83
2022/08/03 04:40:35;;;;;;;9.35;8.45;;;;;;;;;;5045217;28;20418;-83
2022/08/03 04:43:03;;;;;;;9.13;8.23;;;;;;;;;;5044244;28;20425;-83
2022/08/03 04:45:31;;;;;;;8.77;7.93;;;;;;;;;;5041263;28;21141;-83
2022/08/03 04:47:58;;;;;;;9.63;8.52;;;;;;;;;;5044311;28;20442;-83
2022/08/03 04:50:26;;;;;;;10.75;8.63;;;;;;;;;;5040524;28;20436;-83
2022/08/03 04:52:53;;;;;;;9.20;8.40;;;;;;;;;;5043602;28;20466;-84
2022/08/03 04:55:27;;;;;;;9.25;8.45;;;;;;;;;;5042269;28;20413;-84
2022/08/03 04:57:53;;;;;;;11.63;10.43;;;;;;;;;;5047782;28;20430;-84
2022/08/03 05:00:20;;;;;;;11.00;9.90;;;;;;;;;;5044701;28;20436;-83
2022/08/03 05:02:47;;;;;;;11.20;10.00;;;;;;;;;;5042744;28;22965;-83
2022/08/03 05:05:15;;;;;;;11.48;9.68;;;;;;;;;;5046827;28;20429;-82
2022/08/03 05:07:41;;;;;;;11.00;9.88;;;;;;;;;;5044974;28;20437;-80
2022/08/03 05:10:08;;;;;;;10.90;9.90;;;;;;;;;;5043198;28;20419;-82
2022/08/03 05:12:36;;;;;;;10.50;9.50;;;;;;;;;;5042412;28;20429;-82
2022/08/03 05:15:03;;;;;;;10.57;9.57;;;;;;;;;;5044086;28;20958;-82
2022/08/03 05:17:29;;;;;;;10.68;9.25;;;;;;;;;;5044207;28;20436;-83
2022/08/03 05:19:56;;;;;;;11.57;9.97;;;;;;;;;;5041954;28;20448;-82
2022/08/03 05:22:22;;;;;;;11.15;10.05;;;;;;;;;;5043336;28;20787;-82
2022/08/03 05:24:49;;;;;;;12.70;11.50;;;;;;;;;;5043368;28;20478;-82
2022/08/03 05:27:18;;;;;;;11.05;9.95;;;;;;;;;;5044526;28;20423;-83
2022/08/03 05:29:46;;;;;;;12.40;11.20;;;;;;;;;;5039342;28;20425;-84
2022/08/03 05:32:12;;;;;;;13.73;11.70;;;;;;;;;;5043860;28;20437;-83
2022/08/03 05:34:39;;;;;;;13.10;11.90;;;;;;;;;;5039563;28;20428;-83
2022/08/03 05:37:06;;;;;;;12.65;11.45;;;;;;;;;;5043088;28;20433;-84
2022/08/03 05:39:32;;;;;;;12.07;10.88;;;;;;;;;;5043573;28;20412;-82
2022/08/03 05:41:58;;;;;;;13.30;11.80;;;;;;;;;;5042429;28;20425;-84
2022/08/03 05:44:25;;;;;;;13.63;12.32;;;;;;;;;;5042752;28;20426;-83
2022/08/03 05:46:53;;;;;;;13.98;12.48;;;;;;;;;;5039688;28;20425;-83
2022/08/03 05:49:19;;;;;;;14.68;11.70;;;;;;;;;;5044766;28;20430;-82
2022/08/03 05:51:46;;;;;;;12.70;11.50;;;;;;;;;;5046579;28;20425;-85
2022/08/03 05:54:12;;;;;;;14.55;12.05;;;;;;;;;;5047240;28;20906;-83
2022/08/03 05:56:39;;;;;;;13.07;11.43;;;;;;;;;;5041505;28;20466;-83
2022/08/03 05:59:06;;;;;;;13.18;11.88;;;;;;;;;;5045906;28;20419;-82
2022/08/03 06:01:33;;;;;;;12.75;11.50;;;;;;;;;;5045639;28;20935;-82
2022/08/03 06:04:00;;;;;;;13.57;12.10;;;;;;;;;;5047078;28;20409;-84
2022/08/03 06:06:27;;;;;;;13.18;11.77;;;;;;;;;;5042741;28;20444;-81
2022/08/03 06:08:53;;;;;;;12.02;10.55;;;;;;;;;;5045983;28;20409;-81
2022/08/03 06:11:20;;;;;;;12.60;11.13;;;;;;;;;;5046331;28;20844;-82
2022/08/03 06:13:46;;;;;;;12.53;10.90;;;;;;;;;;5045994;28;20428;-81
2022/08/03 06:16:13;;;;;;;13.02;10.82;;;;;;;;;;5045640;28;20425;-81
2022/08/03 06:18:40;;;;;;;11.77;10.48;;;;;;;;;;5044110;28;20515;-81
2022/08/03 06:21:09;;;;;;;12.43;9.70;;;;;;;;;;5043243;28;20429;-81
2022/08/03 06:23:35;;;;;;;11.27;9.60;;;;;;;;;;5047013;28;20455;-81
2022/08/03 06:26:02;;;;;;;10.45;8.65;;;;;;;;;;5045855;28;20431;-82
2022/08/03 06:28:28;;;;;;;11.27;8.73;;;;;;;;;;5045656;28;20410;-83
2022/08/03 06:30:54;;;;;;;10.55;7.32;;;;;;;;;;5045171;28;20425;-83
2022/08/03 06:33:21;;;;;;;11.10;8.60;;;;;;;;;;5045110;28;20431;-84
2022/08/03 06:35:48;;;;;;;13.30;8.25;;;;;;;;;;5045451;28;21075;-83
2022/08/03 06:38:16;;;;;;;11.17;7.90;;;;;;;;;;5045727;28;20448;-82
2022/08/03 06:40:42;;;;;;;10.77;7.53;;;;;;;;;;5043198;28;20940;-82
2022/08/03 06:43:09;;;;;;;12.27;7.25;;;;;;;;;;5047929;28;20415;-82
2022/08/03 06:45:35;;;;;;;12.52;6.90;;;;;;;;;;5044136;28;20914;-80
2022/08/03 06:48:02;;;;;;;7.87;5.63;;;;;;;;;;5047488;28;20438;-81
2022/08/03 06:50:28;;;;;;;6.82;5.80;;;;;;;;;;5045581;28;20423;-82
2022/08/03 06:52:56;;;;;;;7.40;5.93;;;;;;;;;;5047205;28;20425;-82
2022/08/03 06:55:23;;;;;;;9.23;5.70;;;;;;;;;;5045771;28;20429;-82
2022/08/03 06:57:50;;;;;;;12.85;6.10;;;;;;;;;;5045814;28;20516;-84
2022/08/03 07:00:19;;;;;;;9.57;6.20;;;;;;;;;;5045099;28;20425;-83
2022/08/03 07:02:46;;;;;;;9.02;6.18;;;;;;;;;;5045577;28;20437;-81
2022/08/03 07:05:12;;;;;;;8.50;6.17;;;;;;;;;;5046213;28;20433;-81
2022/08/03 07:07:39;;;;;;;8.52;5.97;;;;;;;;;;5045310;28;20444;-81
2022/08/03 07:10:06;;;;;;;8.30;5.43;;;;;;;;;;5044384;28;20416;-82
2022/08/03 07:12:34;;;;;;;7.75;5.40;;;;;;;;;;5045334;28;20436;-81
2022/08/03 07:15:01;;;;;;;9.18;5.20;;;;;;;;;;5045794;28;20442;-83
2022/08/03 07:17:28;;;;;;;6.45;5.30;;;;;;;;;;5046081;28;20415;-82
2022/08/03 07:19:55;;;;;;;8.10;5.10;;;;;;;;;;5046430;28;20429;-81
2022/08/03 07:22:22;;;;;;;8.32;4.97;;;;;;;;;;5046630;28;20431;-82
2022/08/03 07:24:48;;;;;;;8.15;4.70;;;;;;;;;;5045736;28;20434;-83
2022/08/03 07:27:15;;;;;;;7.70;4.70;;;;;;;;;;5045999;28;20443;-83
2022/08/03 07:29:45;;;;;;;6.65;4.70;;;;;;;;;;5045195;28;20428;-83
2022/08/03 07:32:12;;;;;;;6.78;4.40;;;;;;;;;;5046470;28;20417;-82
2022/08/03 07:34:38;;;;;;;7.32;4.20;;;;;;;;;;5045715;28;20439;-83
2022/08/03 07:37:05;;;;;;;10.02;4.85;;;;;;;;;;5046136;28;21279;-80
2022/08/03 07:39:31;;;;;;;8.73;4.80;;;;;;;;;;5045117;28;20501;-82
2022/08/03 07:41:57;;;;;;;7.20;4.60;;;;;;;;;;5051615;28;20427;-82
2022/08/03 07:44:24;;;;;;;9.52;4.90;;;;;;;;;;5045701;28;20429;-82
2022/08/03 07:46:52;;;;;;;6.80;5.10;;;;;;;;;;5044457;28;20426;-82
2022/08/03 07:49:19;;;;;;;8.05;4.93;;;;;;;;;;5042730;28;20431;-81
2022/08/03 07:52:46;;;;;;;8.23;4.60;;;;;;;;;;5045144;28;20929;-81
2022/08/03 07:54:33;;;;;;;9.77;5.20;;;;;;;;;;5044672;28;20951;-82
2022/08/03 07:57:01;;;;;;;11.50;5.15;;;;;;;;;;5042542;28;20526;-82
2022/08/03 07:59:27;;;;;;;8.55;5.20;;;;;;;;;;5045131;28;20440;-81
2022/08/03 08:01:55;;;;;;;10.15;5.45;;;;;;;;;;5042112;28;20426;-84
2022/08/03 08:04:21;;;;;;;9.30;5.30;;;;;;;;;;5043385;28;20439;-82
2022/08/03 08:06:48;;;;;;;8.20;5.43;;;;;;;;;;5044153;28;20456;-82
2022/08/03 08:09:15;;;;;;;6.97;4.85;;;;;;;;;;5044043;28;20444;-82
2022/08/03 08:11:41;;;;;;;8.35;5.30;;;;;;;;;;5044706;28;20430;-82
2022/08/03 08:14:08;;;;;;;9.07;5.43;;;;;;;;;;5045277;28;20808;-82
2022/08/03 08:16:35;;;;;;;9.73;5.13;;;;;;;;;;5044160;28;20440;-82
2022/08/03 08:19:02;;;;;;;7.28;4.75;;;;;;;;;;5045173;28;20437;-82
2022/08/03 08:21:29;;;;;;;10.93;4.85;;;;;;;;;;5044511;28;20823;-81
2022/08/03 08:23:55;;;;;;;8.38;4.90;;;;;;;;;;5044435;28;20429;-81
2022/08/03 08:26:21;;;;;;;10.98;4.65;;;;;;;;;;5042237;28;20886;-83
2022/08/03 08:28:48;;;;;;;7.68;4.40;;;;;;;;;;5043516;28;20878;-82
2022/08/03 08:31:17;;;;;;;10.95;4.70;;;;;;;;;;5044728;28;20473;-82
2022/08/03 08:33:44;;;;;;;12.98;4.30;;;;;;;;;;5044571;28;20442;-81
2022/08/03 08:36:12;;;;;;;7.63;4.00;;;;;;;;;;5042557;28;20436;-84
2022/08/03 08:38:41;;;;;;;6.95;3.90;;;;;;;;;;5041171;28;20444;-81
2022/08/03 08:41:08;;;;;;;8.02;4.13;;;;;;;;;;5044281;28;20455;-81
2022/08/03 08:43:34;;;;;;;8.13;4.15;;;;;;;;;;5042144;28;20434;-83
2022/08/03 08:46:00;;;;;;;10.32;4.55;;;;;;;;;;5044771;28;20422;-83
2022/08/03 08:48:28;;;;;;;6.68;4.15;;;;;;;;;;5043863;28;20414;-82
2022/08/03 08:50:55;;;;;;;7.90;4.35;;;;;;;;;;5042131;28;20417;-82
2022/08/03 08:53:25;;;;;;;10.10;5.00;;;;;;;;;;5043847;28;20432;-82
2022/08/03 08:55:53;;;;;;;6.47;4.40;;;;;;;;;;5043789;28;20426;-82
2022/08/03 08:58:23;;;;;;;8.40;4.40;;;;;;;;;;5043287;28;20414;-82
2022/08/03 09:00:50;;;;;;;8.10;4.50;;;;;;;;;;5042748;28;20839;-81
2022/08/03 09:03:17;;;;;;;10.20;4.53;;;;;;;;;;5043921;28;20428;-84
2022/08/03 09:05:45;;;;;;;8.50;4.60;;;;;;;;;;5042366;28;20465;-82
2022/08/03 09:08:11;;;;;;;11.40;4.57;;;;;;;;;;5044119;28;20430;-83
2022/08/03 09:10:39;;;;;;;7.03;3.80;;;;;;;;;;5044559;28;20484;-80
2022/08/03 09:13:07;;;;;;;10.75;4.40;;;;;;;;;;5042115;28;20456;-82
2022/08/03 09:15:34;;;;;;;8.18;4.10;;;;;;;;;;5042672;28;20428;-81
2022/08/03 09:18:02;;;;;;;8.73;4.78;;;;;;;;;;5043256;28;20438;-80
2022/08/03 09:20:29;;;;;;;7.43;4.60;;;;;;;;;;5044115;28;20432;-82
2022/08/03 09:22:57;;;;;;;11.75;4.90;;;;;;;;;;5044395;28;20426;-82
2022/08/03 09:25:28;;;;;;;22.38;7.00;;;;;;;;;;5047341;28;20563;-80
2022/08/03 09:28:03;;;;;;;8.60;4.70;;;;;;;;;;5046746;28;20433;-82
2022/08/03 09:30:30;;;;;;;12.70;4.80;;;;;;;;;;5043724;28;20955;-81
2022/08/03 09:32:59;;;;;;;10.20;4.97;;;;;;;;;;5048309;28;20424;-82
2022/08/03 09:35:27;;;;;;;11.35;4.70;;;;;;;;;;5045025;28;20976;-83
2022/08/03 09:38:08;;;;;;;8.27;4.45;;;;;;;;;;5047696;28;20433;-84
2022/08/03 09:40:35;;;;;;;9.60;5.05;;;;;;;;;;5047560;28;20417;-84
2022/08/03 09:43:06;;;;;;;19.23;6.80;;;;;;;;;;5046667;28;20437;-82
2022/08/03 09:45:33;;;;;;;10.02;5.43;;;;;;;;;;5046812;28;20995;-82
2022/08/03 09:48:19;;;;;;;7.50;4.20;;;;;;;;;;5046938;28;20429;-82
2022/08/03 09:50:47;;;;;;;12.60;4.80;;;;;;;;;;5046245;28;20473;-83
2022/08/03 09:53:14;;;;;;;10.25;5.00;;;;;;;;;;5044447;28;20434;-83
2022/08/03 09:55:49;;;;;;;8.20;4.50;;;;;;;;;;5046809;28;20431;-83
2022/08/03 09:58:17;;;;;;;7.13;3.85;;;;;;;;;;5047500;28;20431;-83
2022/08/03 10:01:02;;;;;;;12.85;4.50;;;;;;;;;;5047115;28;21331;-80
2022/08/03 10:03:29;;;;;;;7.75;4.10;;;;;;;;;;5046565;28;20503;-80
2022/08/03 10:05:56;;;;;;;9.10;4.33;;;;;;;;;;5044452;28;21066;-81
2022/08/03 10:08:23;;;;;;;9.98;4.47;;;;;;;;;;5046918;28;20496;-82
2022/08/03 10:10:54;;;;;;;8.43;4.63;;;;;;;;;;5046641;28;20475;-82
2022/08/03 10:13:23;;;;;;;6.35;3.97;;;;;;;;;;5047386;28;20449;-81
2022/08/03 10:15:50;;;;;;;7.18;4.30;;;;;;;;;;5046015;28;20792;-82
2022/08/03 10:18:16;;;;;;;10.75;4.05;;;;;;;;;;5045902;28;20437;-81
2022/08/03 10:20:44;;;;;;;7.07;3.72;;;;;;;;;;5045732;28;20413;-83
2022/08/03 10:23:11;;;;;;;7.72;3.53;;;;;;;;;;5044547;28;20419;-84
2022/08/03 10:25:39;;;;;;;7.70;3.70;;;;;;;;;;5045251;28;20411;-83
2022/08/03 10:28:06;;;;;;;6.63;4.28;;;;;;;;;;5044817;28;20436;-84
2022/08/03 10:30:35;;;;;;;6.97;3.80;;;;;;;;;;5042059;28;20428;-84
2022/08/03 10:33:02;;;;;;;6.40;3.70;;;;;;;;;;5047060;28;20525;-81
2022/08/03 10:35:29;;;;;;;7.40;3.70;;;;;;;;;;5042596;28;20474;-81
2022/08/03 10:37:57;;;;;;;9.02;3.50;;;;;;;;;;5046238;28;20421;-83
2022/08/03 10:40:24;;;;;;;5.70;3.58;;;;;;;;;;5046293;28;20423;-83
2022/08/03 10:42:51;;;;;;;7.47;3.50;;;;;;;;;;5046705;28;20852;-82
2022/08/03 10:45:19;;;;;;;6.20;3.20;;;;;;;;;;5046173;28;20409;-84
2022/08/03 10:47:47;;;;;;;8.27;3.60;;;;;;;;;;5045900;28;20439;-85
2022/08/03 10:50:14;;;;;;;6.85;3.50;;;;;;;;;;5046020;28;20442;-84
2022/08/03 10:52:53;;;;;;;6.43;3.25;;;;;;;;;;5044101;28;20741;-81
2022/08/03 10:58:43;;;;;;;6.20;2.97;;;;;;;;;;5044938;28;21000;-82
2022/08/03 11:01:11;;;;;;;5.72;2.95;;;;;;;;;;5045952;28;20419;-82
2022/08/03 11:04:05;;;;;;;6.47;2.88;;;;;;;;;;5046283;28;20429;-82
2022/08/03 11:06:31;;;;;;;7.97;3.00;;;;;;;;;;5045152;28;20532;-81
2022/08/03 11:09:12;;;;;;;6.57;3.70;;;;;;;;;;5045217;28;20433;-83
2022/08/03 11:11:40;;;;;;;8.45;3.20;;;;;;;;;;5043361;28;20424;-82
2022/08/03 11:14:08;;;;;;;6.80;3.15;;;;;;;;;;5046438;28;20429;-81
2022/08/03 11:16:35;;;;;;;6.27;2.97;;;;;;;;;;5041627;28;20425;-81
2022/08/03 11:19:06;;;;;;;7.43;2.95;;;;;;;;;;5046252;28;20969;-81
2022/08/03 11:21:51;;;;;;;7.43;3.17;;;;;;;;;;5045103;28;20425;-82
2022/08/03 11:24:32;;;;;;;7.88;3.30;;;;;;;;;;5048672;28;20533;-82
2022/08/03 11:27:14;;;;;;;7.63;3.40;;;;;;;;;;5045818;28;20431;-82
2022/08/03 11:29:55;;;;;;;8.27;3.15;;;;;;;;;;5044702;28;20504;-83
2022/08/03 11:32:39;;;;;;;9.63;3.35;;;;;;;;;;5045908;28;20510;-81
2022/08/03 11:35:12;;;;;;;8.98;3.50;;;;;;;;;;5044800;28;20422;-82
2022/08/03 11:38:01;;;;;;;4.28;2.88;;;;;;;;;;5043818;28;20682;-82
2022/08/03 11:40:35;;;;;;;10.85;3.20;;;;;;;;;;5041956;28;20437;-83
2022/08/03 11:43:02;;;;;;;7.68;3.30;;;;;;;;;;5046460;28;20434;-81
2022/08/03 11:45:30;;;;;;;5.93;2.85;;;;;;;;;;5043759;28;20444;-83
2022/08/03 11:47:57;;;;;;;6.55;3.13;;;;;;;;;;5045292;28;20429;-81
2022/08/03 11:50:25;;;;;;;6.50;2.58;;;;;;;;;;5044451;28;20440;-81
2022/08/03 11:52:51;;;;;;;9.18;3.58;;;;;;;;;;5046098;28;20439;-81
2022/08/03 11:55:20;;;;;;;9.43;3.35;;;;;;;;;;5045670;28;20417;-82
2022/08/03 11:57:47;;;;;;;6.68;2.70;;;;;;;;;;5043346;28;20431;-82
2022/08/03 12:00:27;;;;;;;8.00;3.03;;;;;;;;;;5044377;28;20951;-81
2022/08/03 12:02:59;;;;;;;8.63;3.15;;;;;;;;;;5045116;28;20430;-83
2022/08/03 12:05:37;;;;;;;7.47;3.22;;;;;;;;;;5042987;28;20442;-80
2022/08/03 12:08:04;;;;;;;6.67;3.00;;;;;;;;;;5044598;28;20413;-83
2022/08/03 12:10:30;;;;;;;5.50;3.00;;;;;;;;;;5044401;28;20786;-81
2022/08/03 12:12:59;;;;;;;8.25;2.97;;;;;;;;;;5045882;28;20423;-82
2022/08/03 12:15:25;;;;;;;8.30;3.33;;;;;;;;;;5040673;28;20437;-84
2022/08/03 12:17:52;;;;;;;5.63;3.00;;;;;;;;;;5029244;28;20494;-81
2022/08/03 12:20:21;;;;;;;7.50;2.90;;;;;;;;;;5045009;28;20422;-84
2022/08/03 12:22:48;;;;;;;8.70;3.00;;;;;;;;;;5044691;28;20418;-82
2022/08/03 12:25:20;;;;;;;7.73;3.00;;;;;;;;;;5043675;28;20478;-83
2022/08/03 12:27:47;;;;;;;6.80;2.70;;;;;;;;;;5045259;28;20422;-83
2022/08/03 12:30:13;;;;;;;5.45;3.10;;;;;;;;;;5044612;28;20409;-80
2022/08/03 12:32:42;;;;;;;6.40;2.70;;;;;;;;;;5042984;28;20425;-82
2022/08/03 12:35:09;;;;;;;6.07;2.80;;;;;;;;;;5044703;28;20432;-82
2022/08/03 12:37:36;;;;;;;5.78;2.63;;;;;;;;;;5043241;28;20570;-82
2022/08/03 12:40:05;;;;;;;6.45;2.80;;;;;;;;;;5044298;28;20439;-80
2022/08/03 12:42:32;;;;;;;9.07;2.90;;;;;;;;;;5043163;28;20418;-81
2022/08/03 12:44:59;;;;;;;6.78;2.30;;;;;;;;;;5042199;28;20426;-81
2022/08/03 12:47:25;;;;;;;6.00;2.70;;;;;;;;;;5044244;28;20413;-82
2022/08/03 12:49:52;;;;;;;8.65;2.78;;;;;;;;;;5041862;28;20438;-81
2022/08/03 12:52:19;;;;;;;5.03;2.80;;;;;;;;;;5044394;28;20432;-86
2022/08/03 12:54:54;;;;;;;8.88;3.25;;;;;;;;;;5043299;28;20441;-84
2022/08/03 12:57:22;;;;;;;7.77;3.10;;;;;;;;;;5043873;28;20797;-83
2022/08/03 12:59:48;;;;;;;7.82;2.70;;;;;;;;;;5044083;28;20503;-81
2022/08/03 13:02:16;;;;;;;9.25;2.85;;;;;;;;;;5042253;28;20438;-84
2022/08/03 13:04:42;;;;;;;6.60;2.67;;;;;;;;;;5042407;28;20810;-85
2022/08/03 13:07:09;;;;;;;6.60;2.70;;;;;;;;;;5044662;28;20425;-81
2022/08/03 13:09:41;;;;;;;7.72;2.90;;;;;;;;;;5043978;28;20431;-84
2022/08/03 13:12:08;;;;;;;8.52;2.30;;;;;;;;;;5044764;28;20411;-82
2022/08/03 13:14:36;;;;;;;9.00;2.63;;;;;;;;;;5044703;28;20924;-84
2022/08/03 13:17:02;;;;;;;8.98;2.90;;;;;;;;;;5046552;28;20424;-85
2022/08/03 13:19:29;;;;;;;7.18;2.70;;;;;;;;;;5045340;28;20436;-82
2022/08/03 13:21:55;;;;;;;5.30;2.38;;;;;;;;;;5043897;28;20409;-81
2022/08/03 13:24:22;;;;;;;10.82;2.53;;;;;;;;;;5041969;28;20436;-82
2022/08/03 13:26:49;;;;;;;6.75;2.47;;;;;;;;;;5044264;28;20430;-82
2022/08/03 13:29:16;;;;;;;7.38;2.72;;;;;;;;;;5043402;28;20432;-82
2022/08/03 13:31:43;;;;;;;8.00;2.65;;;;;;;;;;5042379;28;20430;-84
2022/08/03 13:34:10;;;;;;;4.85;2.42;;;;;;;;;;5042831;28;20438;-83
2022/08/03 13:36:36;;;;;;;5.65;2.78;;;;;;;;;;5043531;28;20436;-82
2022/08/03 13:39:03;;;;;;;7.40;2.60;;;;;;;;;;5044022;28;20419;-82
2022/08/03 13:41:29;;;;;;;8.85;2.80;;;;;;;;;;5043284;28;20437;-82
2022/08/03 13:43:56;;;;;;;7.40;2.90;;;;;;;;;;5042264;28;20431;-83
2022/08/03 13:46:22;;;;;;;6.80;2.40;;;;;;;;;;5044481;28;20549;-82
2022/08/03 13:48:50;;;;;;;7.78;2.63;;;;;;;;;;5039594;28;20429;-84
2022/08/03 13:51:16;;;;;;;7.78;2.85;;;;;;;;;;5042995;28;20504;-82
2022/08/03 13:53:43;;;;;;;6.28;2.60;;;;;;;;;;5041157;28;20430;-82
2022/08/03 13:56:09;;;;;;;7.90;2.90;;;;;;;;;;5045853;28;20433;-82
2022/08/03 13:58:38;;;;;;;5.70;2.88;;;;;;;;;;5040354;28;20443;-83
2022/08/03 14:01:04;;;;;;;6.50;2.80;;;;;;;;;;5042463;28;20440;-81
2022/08/03 14:03:30;;;;;;;6.13;2.60;;;;;;;;;;5042413;28;20429;-86
2022/08/03 14:05:58;;;;;;;8.45;3.88;;;;;;;;;;5043335;28;20433;-81
2022/08/03 14:08:26;;;;;;;8.25;3.78;;;;;;;;;;5043496;28;20431;-81
2022/08/03 14:10:52;;;;;;;9.77;3.95;;;;;;;;;;5046228;28;20433;-84
2022/08/03 14:13:18;;;;;;;9.70;3.95;;;;;;;;;;5044207;28;21045;-82
2022/08/03 14:15:45;;;;;;;8.93;4.10;;;;;;;;;;5045792;28;20441;-81
2022/08/03 14:18:11;;;;;;;9.80;4.97;;;;;;;;;;5043695;28;20444;-83
2022/08/03 14:20:37;;;;;;;10.93;4.20;;;;;;;;;;5045284;28;20438;-83
2022/08/03 14:23:09;;;;;;;10.18;4.20;;;;;;;;;;5044625;28;20425;-83
2022/08/03 14:25:35;;;;;;;8.25;3.20;;;;;;;;;;5046627;28;20433;-83
2022/08/03 14:28:02;;;;;;;7.97;2.88;;;;;;;;;;5044687;28;22010;-82
2022/08/03 14:30:28;;;;;;;6.68;2.75;;;;;;;;;;5043910;28;20440;-82
2022/08/03 14:32:55;;;;;;;8.63;2.80;;;;;;;;;;5045451;28;20433;-83
2022/08/03 14:35:21;;;;;;;9.07;2.85;;;;;;;;;;5047761;28;20432;-83
2022/08/03 14:37:48;;;;;;;10.10;3.17;;;;;;;;;;5046878;28;20419;-84
2022/08/03 14:40:15;;;;;;;10.17;3.17;;;;;;;;;;5047336;28;20437;-82
2022/08/03 14:42:42;;;;;;;8.77;3.13;;;;;;;;;;5044874;28;20433;-82
2022/08/03 14:45:09;;;;;;;12.10;3.10;;;;;;;;;;5047131;28;20437;-81
2022/08/03 14:47:35;;;;;;;9.00;3.33;;;;;;;;;;5047593;28;20799;-82
2022/08/03 14:50:03;;;;;;;8.48;3.00;;;;;;;;;;5046297;28;21849;-83
2022/08/03 14:52:29;;;;;;;11.13;3.13;;;;;;;;;;5046350;28;20417;-82